createdAt,value
2022-08-25T00:02:04.714Z,96505.28
2022-08-25T00:04:36.271Z,96489.69
2022-08-25T00:07:06.339Z,96496.56
2022-08-25T00:09:35.450Z,96493.78
2022-08-25T00:12:05.230Z,96483.81
2022-08-25T00:14:37.018Z,96486.66
2022-08-25T00:17:05.982Z,96493.81
2022-08-25T00:19:36.614Z,96498.09
2022-08-25T00:22:08.024Z,96480.88
2022-08-25T00:24:37.515Z,96478.16
2022-08-25T00:27:08.039Z,96470.44
2022-08-25T00:29:37.990Z,96489.53
2022-08-25T00:32:08.737Z,96478.38
2022-08-25T00:34:38.216Z,96491.53
2022-08-25T00:37:09.192Z,96492.16
2022-08-25T00:39:38.688Z,96482.72
2022-08-25T00:42:10.789Z,96482.72
2022-08-25T00:44:44.525Z,96487.31
2022-08-25T00:47:14.877Z,96482.47
2022-08-25T00:49:46.826Z,96485.03
2022-08-25T00:52:23.383Z,96493.25
2022-08-25T00:55:03.058Z,96493.28
2022-08-25T00:57:39.180Z,96493.84
2022-08-25T01:00:12.429Z,96491.84
2022-08-25T01:02:41.440Z,96498.34
2022-08-25T01:05:13.490Z,96487.53
2022-08-25T01:07:43.611Z,96471.03
2022-08-25T01:10:13.422Z,96487.16
2022-08-25T01:12:41.139Z,96485.28
2022-08-25T01:15:09.884Z,96484.44
2022-08-25T01:17:56.076Z,96465.31
2022-08-25T01:20:29.315Z,96475.53
2022-08-25T01:22:59.522Z,96466.81
2022-08-25T01:26:03.806Z,96470.78
2022-08-25T01:28:30.910Z,96455.69
2022-08-25T01:30:58.725Z,96457.56
2022-08-25T01:33:25.704Z,96451.13
2022-08-25T01:35:52.845Z,96433.25
2022-08-25T01:38:23.103Z,96432.13
2022-08-25T01:40:50.833Z,96462.88
2022-08-25T01:43:37.046Z,96456.81
2022-08-25T01:46:05.126Z,96447.34
2022-08-25T01:48:33.449Z,96439.53
2022-08-25T01:51:00.841Z,96436.84
2022-08-25T01:53:33.369Z,96460.06
2022-08-25T01:56:14.450Z,96458.50
2022-08-25T01:58:46.706Z,96451.81
2022-08-25T02:01:18.160Z,96443.59
2022-08-25T02:03:49.979Z,96461.84
2022-08-25T02:06:30.227Z,96461.16
2022-08-25T02:09:13.569Z,96449.28
2022-08-25T02:11:43.995Z,96443.50
2022-08-25T02:14:13.894Z,96463.00
2022-08-25T02:16:44.617Z,96466.34
2022-08-25T02:19:12.329Z,96453.44
2022-08-25T02:21:39.507Z,96463.00
2022-08-25T02:24:08.174Z,96459.53
2022-08-25T02:26:36.499Z,96468.31
2022-08-25T02:29:06.808Z,96454.59
2022-08-25T02:31:34.389Z,96427.25
2022-08-25T02:34:04.516Z,96445.41
2022-08-25T02:36:32.253Z,96452.88
2022-08-25T02:38:59.390Z,96440.88
2022-08-25T02:41:30.876Z,96449.38
2022-08-25T02:44:01.641Z,96436.25
2022-08-25T02:46:29.536Z,96431.13
2022-08-25T02:48:57.753Z,96437.13
2022-08-25T02:51:26.041Z,96452.81
2022-08-25T02:53:54.402Z,96442.41
2022-08-25T02:56:21.063Z,96434.00
2022-08-25T02:58:48.639Z,96413.19
2022-08-25T03:01:28.408Z,96443.13
2022-08-25T03:03:58.900Z,96432.75
2022-08-25T03:06:27.945Z,96417.16
2022-08-25T03:08:56.178Z,96428.47
2022-08-25T03:11:26.504Z,96436.03
2022-08-25T03:13:54.657Z,96430.06
2022-08-25T03:16:23.782Z,96422.41
2022-08-25T03:18:57.492Z,96435.50
2022-08-25T03:21:25.809Z,96445.00
2022-08-25T03:23:52.599Z,96434.78
2022-08-25T03:26:38.978Z,96417.53
2022-08-25T03:29:06.377Z,96405.94
2022-08-25T03:31:35.437Z,96430.06
2022-08-25T03:34:02.269Z,96431.88
2022-08-25T03:36:29.104Z,96400.88
2022-08-25T03:38:57.764Z,96429.22
2022-08-25T03:41:29.357Z,96427.56
2022-08-25T03:43:56.320Z,96430.94
2022-08-25T03:46:26.560Z,96439.38
2022-08-25T03:48:55.312Z,96432.66
2022-08-25T03:51:28.086Z,96417.94
2022-08-25T03:53:55.379Z,96423.78
2022-08-25T03:56:25.379Z,96421.09
2022-08-25T03:58:54.024Z,96418.91
2022-08-25T04:01:22.472Z,96423.84
2022-08-25T04:03:51.473Z,96392.19
2022-08-25T04:06:20.249Z,96430.94
2022-08-25T04:08:48.535Z,96421.59
2022-08-25T04:11:19.995Z,96426.13
2022-08-25T04:13:47.961Z,96416.78
2022-08-25T04:16:24.765Z,96431.72
2022-08-25T04:18:55.159Z,96433.34
2022-08-25T04:21:24.691Z,96422.25
2022-08-25T04:23:53.361Z,96431.63
2022-08-25T04:26:43.557Z,96430.53
2022-08-25T04:29:13.347Z,96409.78
2022-08-25T04:31:42.780Z,96426.81
2022-08-25T04:34:14.278Z,96416.53
2022-08-25T04:37:00.910Z,96396.16
2022-08-25T04:39:29.440Z,96415.22
2022-08-25T04:41:58.080Z,96435.78
2022-08-25T04:44:26.455Z,96416.03
2022-08-25T04:46:55.178Z,96419.34
2022-08-25T04:49:24.870Z,96430.28
2022-08-25T04:51:56.239Z,96383.97
2022-08-25T04:54:23.173Z,96410.84
2022-08-25T04:56:54.122Z,96402.38
2022-08-25T04:59:23.258Z,96423.53
2022-08-25T05:01:58.642Z,96408.81
2022-08-25T05:04:36.148Z,96412.94
2022-08-25T05:07:04.707Z,96414.78
2022-08-25T05:09:32.897Z,96430.31
2022-08-25T05:12:02.860Z,96424.91
2022-08-25T05:14:32.223Z,96422.84
2022-08-25T05:16:59.407Z,96417.47
2022-08-25T05:19:27.967Z,96403.66
2022-08-25T05:21:58.056Z,96410.50
2022-08-25T05:24:25.579Z,96420.63
2022-08-25T05:26:52.262Z,96419.75
2022-08-25T05:29:19.505Z,96406.53
2022-08-25T05:31:50.304Z,96408.22
2022-08-25T05:34:19.811Z,96400.41
2022-08-25T05:36:47.989Z,96407.06
2022-08-25T05:39:16.426Z,96403.63
2022-08-25T05:41:44.483Z,96406.09
2022-08-25T05:44:12.881Z,96400.78
2022-08-25T05:46:41.029Z,96414.66
2022-08-25T05:49:10.129Z,96394.72
2022-08-25T05:51:37.910Z,96414.41
2022-08-25T05:54:05.350Z,96410.00
2022-08-25T05:56:33.159Z,96395.91
2022-08-25T05:59:00.870Z,96423.28
2022-08-25T06:01:49.391Z,96399.72
2022-08-25T06:04:18.255Z,96377.44
2022-08-25T06:06:48.752Z,96403.75
2022-08-25T06:09:18.932Z,96407.00
2022-08-25T06:11:50.572Z,96398.88
2022-08-25T06:14:21.411Z,96399.81
2022-08-25T06:16:53.322Z,96394.09
2022-08-25T06:19:23.460Z,96399.66
2022-08-25T06:21:54.303Z,96412.59
2022-08-25T06:24:25.151Z,96407.72
2022-08-25T06:26:57.046Z,96390.91
2022-08-25T06:29:24.309Z,96378.00
2022-08-25T06:31:54.970Z,96396.88
2022-08-25T06:34:24.053Z,96380.97
2022-08-25T06:36:54.317Z,96376.44
2022-08-25T06:39:24.099Z,96389.06
2022-08-25T06:41:56.795Z,96391.03
2022-08-25T06:44:27.806Z,96390.41
2022-08-25T06:46:58.319Z,96397.53
2022-08-25T06:49:31.858Z,96380.78
2022-08-25T06:52:04.108Z,96386.97
2022-08-25T06:54:33.202Z,96390.53
2022-08-25T06:57:00.709Z,96385.59
2022-08-25T06:59:31.941Z,96391.00
2022-08-25T07:01:59.976Z,96377.50
2022-08-25T07:04:28.942Z,96402.38
2022-08-25T07:06:58.973Z,96369.28
2022-08-25T07:09:27.198Z,96387.94
2022-08-25T07:11:56.547Z,96361.03
2022-08-25T07:14:23.567Z,96388.91
2022-08-25T07:16:53.098Z,96380.66
2022-08-25T07:19:21.108Z,96387.28
2022-08-25T07:21:51.342Z,96375.00
2022-08-25T07:24:18.015Z,96384.25
2022-08-25T07:26:46.614Z,96371.13
2022-08-25T07:29:26.585Z,96394.63
2022-08-25T07:32:01.558Z,96389.19
2022-08-25T07:34:52.361Z,96391.47
2022-08-25T07:37:47.234Z,96396.91
2022-08-25T07:40:08.855Z,96360.69
2022-08-25T07:42:37.826Z,96387.66
2022-08-25T07:45:07.218Z,96322.13
2022-08-25T07:47:38.652Z,96385.03
2022-08-25T07:50:11.978Z,96358.72
2022-08-25T07:52:42.218Z,96378.28
2022-08-25T07:55:11.073Z,96366.31
2022-08-25T07:57:41.540Z,96370.88
2022-08-25T08:00:10.994Z,96365.69
2022-08-25T08:02:42.935Z,96374.91
2022-08-25T08:05:16.070Z,96383.09
2022-08-25T08:07:44.476Z,96367.25
2022-08-25T08:13:10.073Z,96373.66
2022-08-25T08:15:42.220Z,96383.59
2022-08-25T08:18:11.785Z,96381.53
2022-08-25T08:20:44.207Z,96381.25
2022-08-25T08:23:11.658Z,96373.88
2022-08-25T08:25:40.299Z,96385.44
2022-08-25T08:28:08.017Z,96381.63
2022-08-25T08:30:36.913Z,96363.81
2022-08-25T08:33:10.113Z,96370.63
2022-08-25T08:35:41.403Z,96389.19
2022-08-25T08:38:17.300Z,96379.53
2022-08-25T08:41:29.387Z,96379.72
2022-08-25T08:44:20.055Z,96378.31
2022-08-25T08:47:08.840Z,96360.94
2022-08-25T08:49:42.084Z,96364.59
2022-08-25T08:52:15.328Z,96371.53
2022-08-25T08:54:46.014Z,96366.56
2022-08-25T08:57:19.967Z,96356.78
2022-08-25T08:59:55.421Z,96374.13
2022-08-25T09:02:39.448Z,96364.50
2022-08-25T09:05:23.864Z,96343.91
2022-08-25T09:07:59.461Z,96366.25
2022-08-25T09:10:29.083Z,96361.16
2022-08-25T09:13:12.168Z,96363.06
2022-08-25T09:16:20.622Z,96360.53
2022-08-25T09:19:08.366Z,96362.97
2022-08-25T09:21:45.445Z,96380.78
2022-08-25T09:24:38.930Z,96383.00
2022-08-25T09:27:18.672Z,96361.81
2022-08-25T09:30:00.962Z,96382.25
2022-08-25T09:32:35.153Z,96369.91
2022-08-25T09:35:03.402Z,96375.31
2022-08-25T09:37:30.299Z,96381.56
2022-08-25T09:39:59.284Z,96372.28
2022-08-25T09:42:48.200Z,96381.44
2022-08-25T09:45:33.209Z,96382.56
2022-08-25T09:48:00.003Z,96349.91
2022-08-25T09:50:32.333Z,96373.16
2022-08-25T09:53:17.115Z,96347.31
2022-08-25T09:55:46.948Z,96352.72
2022-08-25T09:58:22.238Z,96375.75
2022-08-25T10:01:03.839Z,96366.94
2022-08-25T10:03:36.756Z,96372.19
2022-08-25T10:06:13.314Z,96373.06
2022-08-25T10:08:53.363Z,96372.09
2022-08-25T10:11:37.879Z,96375.56
2022-08-25T10:14:35.163Z,96359.78
2022-08-25T10:17:38.515Z,96363.31
2022-08-25T10:20:10.518Z,96358.59
2022-08-25T10:22:41.281Z,96330.06
2022-08-25T10:25:14.266Z,96341.06
2022-08-25T10:27:56.670Z,96367.00
2022-08-25T10:30:31.807Z,96360.03
2022-08-25T10:33:19.844Z,96354.03
2022-08-25T10:35:57.397Z,96372.56
2022-08-25T10:38:36.089Z,96378.09
2022-08-25T10:41:19.784Z,96349.16
2022-08-25T10:44:02.606Z,96380.31
2022-08-25T10:46:52.630Z,96353.63
2022-08-25T10:49:30.504Z,96336.16
2022-08-25T10:52:04.325Z,96344.19
2022-08-25T10:54:53.770Z,96353.63
2022-08-25T10:57:36.851Z,96344.00
2022-08-25T11:00:15.073Z,96374.00
2022-08-25T11:03:12.564Z,96356.75
2022-08-25T11:05:54.459Z,96323.56
2022-08-25T11:08:28.463Z,96349.44
2022-08-25T11:11:08.113Z,96352.41
2022-08-25T11:13:47.588Z,96351.84
2022-08-25T11:16:19.772Z,96353.66
2022-08-25T11:19:05.608Z,96350.13
2022-08-25T11:21:48.369Z,96351.63
2022-08-25T11:24:18.131Z,96326.50
2022-08-25T11:26:53.538Z,96338.66
2022-08-25T11:29:27.223Z,96336.06
2022-08-25T11:31:54.642Z,96313.38
2022-08-25T11:34:22.960Z,96337.31
2022-08-25T11:36:59.882Z,96325.53
2022-08-25T11:39:38.724Z,96325.13
2022-08-25T11:42:32.287Z,96315.72
2022-08-25T11:45:36.105Z,96310.97
2022-08-25T11:48:22.558Z,96309.47
2022-08-25T11:50:59.395Z,96308.59
2022-08-25T11:53:30.358Z,96310.72
2022-08-25T11:56:05.524Z,96318.91
2022-08-25T11:58:49.643Z,96309.50
2022-08-25T12:01:53.246Z,96327.03
2022-08-25T12:04:44.269Z,96305.34
2022-08-25T12:07:18.633Z,96320.53
2022-08-25T12:09:55.665Z,96329.75
2022-08-25T12:13:08.142Z,96327.47
2022-08-25T12:15:42.689Z,96333.41
2022-08-25T12:18:36.096Z,96312.56
2022-08-25T12:21:06.559Z,96312.50
2022-08-25T12:23:36.787Z,96249.97
2022-08-25T12:26:41.882Z,96323.63
2022-08-25T12:29:21.466Z,96336.22
2022-08-25T12:32:04.984Z,96325.25
2022-08-25T12:34:39.828Z,96318.16
2022-08-25T12:37:17.818Z,96311.63
2022-08-25T12:39:51.475Z,96313.81
2022-08-25T12:42:40.585Z,96316.47
2022-08-25T12:45:10.314Z,96302.63
2022-08-25T12:47:44.746Z,96295.41
2022-08-25T12:50:47.682Z,96317.38
2022-08-25T12:53:38.363Z,96322.72
2022-08-25T12:56:10.416Z,96310.41
2022-08-25T12:59:00.855Z,96306.47
2022-08-25T13:01:39.685Z,96298.38
2022-08-25T13:04:12.070Z,96307.25
2022-08-25T13:06:46.565Z,96302.44
2022-08-25T13:09:24.914Z,96301.13
2022-08-25T13:12:11.942Z,96280.25
2022-08-25T13:14:41.265Z,96291.25
2022-08-25T13:17:12.545Z,96297.47
2022-08-25T13:19:39.190Z,96283.94
2022-08-25T13:22:16.778Z,96289.09
2022-08-25T13:24:47.572Z,96283.94
2022-08-25T13:27:24.387Z,96288.13
2022-08-25T13:29:55.664Z,96290.97
2022-08-25T13:32:32.543Z,96292.81
2022-08-25T13:35:33.009Z,96287.34
2022-08-25T13:38:20.267Z,96282.81
2022-08-25T13:40:48.693Z,96277.84
2022-08-25T13:43:16.391Z,96283.63
2022-08-25T13:45:46.480Z,96291.72
2022-08-25T13:48:32.968Z,96277.09
2022-08-25T13:51:19.600Z,96271.97
2022-08-25T13:54:00.237Z,96276.47
2022-08-25T13:56:41.184Z,96270.44
2022-08-25T13:59:26.116Z,96276.69
2022-08-25T14:01:56.853Z,96277.97
2022-08-25T14:04:33.676Z,96273.88
2022-08-25T14:07:14.537Z,96258.44
2022-08-25T14:09:49.271Z,96265.16
2022-08-25T14:12:39.452Z,96263.19
2022-08-25T14:15:16.451Z,96266.03
2022-08-25T14:18:00.996Z,96266.81
2022-08-25T14:20:31.178Z,96265.78
2022-08-25T14:23:03.322Z,96268.19
2022-08-25T14:25:34.885Z,96265.72
2022-08-25T14:28:16.479Z,96271.34
2022-08-25T14:30:51.922Z,96268.59
2022-08-25T14:33:21.874Z,96248.81
2022-08-25T14:35:52.676Z,96266.63
2022-08-25T14:38:21.522Z,96266.75
2022-08-25T14:40:51.093Z,96262.78
2022-08-25T14:43:24.030Z,96259.31
2022-08-25T14:46:00.562Z,96259.59
2022-08-25T14:48:40.238Z,96270.81
2022-08-25T14:51:12.135Z,96275.38
2022-08-25T14:53:39.676Z,96252.72
2022-08-25T14:56:10.233Z,96270.28
2022-08-25T14:58:50.838Z,96245.16
2022-08-25T15:01:29.088Z,96249.09
2022-08-25T15:04:10.013Z,96245.13
2022-08-25T15:06:39.295Z,96245.25
2022-08-25T15:09:16.320Z,96251.47
2022-08-25T15:11:50.696Z,96245.75
2022-08-25T15:14:29.176Z,96263.06
2022-08-25T15:17:02.000Z,96260.09
2022-08-25T15:19:29.490Z,96252.03
2022-08-25T15:21:58.255Z,96251.31
2022-08-25T15:24:26.862Z,96255.00
2022-08-25T15:27:05.488Z,96259.78
2022-08-25T15:29:34.953Z,96230.53
2022-08-25T15:32:03.453Z,96231.50
2022-08-25T15:34:30.996Z,96249.84
2022-08-25T15:37:00.431Z,96237.09
2022-08-25T15:39:27.850Z,96256.72
2022-08-25T15:41:54.787Z,96247.25
2022-08-25T15:44:28.610Z,96242.66
2022-08-25T15:46:58.623Z,96242.03
2022-08-25T15:49:26.676Z,96244.28
2022-08-25T15:51:57.980Z,96220.91
2022-08-25T15:54:27.050Z,96235.69
2022-08-25T15:56:56.819Z,96224.53
2022-08-25T15:59:26.190Z,96241.94
2022-08-25T16:01:58.243Z,96233.19
2022-08-25T16:04:29.220Z,96245.13
2022-08-25T16:06:57.105Z,96236.59
2022-08-25T16:09:26.569Z,96238.69
2022-08-25T16:11:56.140Z,96213.59
2022-08-25T16:14:27.632Z,96209.25
2022-08-25T16:16:58.213Z,96223.28
2022-08-25T16:19:29.817Z,96214.09
2022-08-25T16:21:58.476Z,96191.19
2022-08-25T16:24:30.819Z,96222.25
2022-08-25T16:27:11.656Z,96211.50
2022-08-25T16:29:43.807Z,96201.13
2022-08-25T16:32:13.370Z,96194.88
2022-08-25T16:34:42.937Z,96214.66
2022-08-25T16:37:13.958Z,96180.50
2022-08-25T16:39:44.068Z,96192.63
2022-08-25T16:42:13.437Z,96182.50
2022-08-25T16:44:41.907Z,96195.03
2022-08-25T16:47:09.140Z,96195.25
2022-08-25T16:49:38.012Z,96200.00
2022-08-25T16:52:28.510Z,96191.06
2022-08-25T16:55:15.150Z,96210.88
2022-08-25T16:57:54.222Z,96199.50
2022-08-25T17:00:23.593Z,96197.69
2022-08-25T17:03:05.174Z,96194.19
2022-08-25T17:05:40.574Z,96193.34
2022-08-25T17:08:28.004Z,96186.69
2022-08-25T17:11:07.163Z,96188.91
2022-08-25T17:13:34.514Z,96184.44
2022-08-25T17:16:03.046Z,96191.94
2022-08-25T17:18:30.426Z,96194.13
2022-08-25T17:20:59.873Z,96187.56
2022-08-25T17:23:27.633Z,96183.06
2022-08-25T17:25:55.495Z,96176.66
2022-08-25T17:28:22.711Z,96195.16
2022-08-25T17:30:53.646Z,96169.34
2022-08-25T17:33:23.902Z,96179.78
2022-08-25T17:35:54.398Z,96166.78
2022-08-25T17:38:26.125Z,96177.31
2022-08-25T17:40:58.941Z,96174.56
2022-08-25T17:43:27.348Z,96177.81
2022-08-25T17:45:56.887Z,96175.31
2022-08-25T17:48:27.517Z,96143.88
2022-08-25T17:50:55.120Z,96176.81
2022-08-25T17:53:22.003Z,96174.56
2022-08-25T17:55:58.151Z,96186.91
2022-08-25T17:58:28.442Z,96164.63
2022-08-25T18:00:57.108Z,96187.38
2022-08-25T18:03:26.738Z,96172.13
2022-08-25T18:05:56.782Z,96163.13
2022-08-25T18:08:35.174Z,96174.41
2022-08-25T18:11:04.683Z,96171.75
2022-08-25T18:13:34.124Z,96147.50
2022-08-25T18:16:02.130Z,96184.84
2022-08-25T18:18:31.528Z,96182.50
2022-08-25T18:21:01.569Z,96166.97
2022-08-25T18:23:32.914Z,96178.84
2022-08-25T18:26:00.928Z,96175.03
2022-08-25T18:28:29.536Z,96181.72
2022-08-25T18:30:57.517Z,96174.91
2022-08-25T18:33:25.495Z,96173.81
2022-08-25T18:36:03.802Z,96179.03
2022-08-25T18:38:52.185Z,96173.69
2022-08-25T18:41:27.671Z,96167.06
2022-08-25T18:43:56.802Z,96171.81
2022-08-25T18:46:24.038Z,96160.03
2022-08-25T18:48:52.766Z,96180.94
2022-08-25T18:51:23.288Z,96171.44
2022-08-25T18:53:54.487Z,96170.03
2022-08-25T18:56:26.685Z,96191.91
2022-08-25T18:58:53.314Z,96176.91
2022-08-25T19:01:21.633Z,96178.03
2022-08-25T19:03:50.394Z,96185.34
2022-08-25T19:06:17.745Z,96177.44
2022-08-25T19:08:46.338Z,96146.22
2022-08-25T19:11:14.596Z,96182.38
2022-08-25T19:13:42.716Z,96176.81
2022-08-25T19:16:11.233Z,96182.66
2022-08-25T19:18:39.479Z,96182.88
2022-08-25T19:21:07.503Z,96155.88
2022-08-25T19:23:38.096Z,96167.22
2022-08-25T19:26:17.002Z,96155.50
2022-08-25T19:28:48.883Z,96171.09
2022-08-25T19:31:21.800Z,96165.34
2022-08-25T19:33:49.977Z,96175.75
2022-08-25T19:36:23.093Z,96163.25
2022-08-25T19:38:51.813Z,96164.50
2022-08-25T19:41:20.595Z,96178.88
2022-08-25T19:43:55.198Z,96179.53
2022-08-25T19:46:47.757Z,96181.34
2022-08-25T19:49:21.269Z,96164.09
2022-08-25T19:51:51.429Z,96173.84
2022-08-25T19:54:23.966Z,96175.75
2022-08-25T19:56:55.595Z,96176.50
2022-08-25T19:59:25.451Z,96167.69
2022-08-25T20:01:55.000Z,96161.56
2022-08-25T20:04:24.169Z,96161.72
2022-08-25T20:06:55.560Z,96147.03
2022-08-25T20:09:39.530Z,96156.25
2022-08-25T20:12:10.360Z,96169.69
2022-08-25T20:14:41.889Z,96176.88
2022-08-25T20:17:23.179Z,96097.16
2022-08-25T20:19:57.118Z,96170.41
2022-08-25T20:22:30.871Z,96173.03
2022-08-25T20:25:20.278Z,96174.84
2022-08-25T20:27:50.321Z,96179.59
2022-08-25T20:30:24.885Z,96175.84
2022-08-25T20:32:54.184Z,96166.81
2022-08-25T20:35:26.443Z,96177.72
2022-08-25T20:37:57.061Z,96180.22
2022-08-25T20:40:26.454Z,96168.09
2022-08-25T20:42:55.669Z,96180.28
2022-08-25T20:45:23.295Z,96144.69
2022-08-25T20:47:54.002Z,96169.22
2022-08-25T20:50:23.548Z,96158.91
2022-08-25T20:52:52.166Z,96181.59
2022-08-25T20:55:19.257Z,96160.34
2022-08-25T20:57:46.573Z,96164.84
2022-08-25T21:00:15.644Z,96158.09
2022-08-25T21:02:46.610Z,96162.91
2022-08-25T21:05:15.819Z,96163.94
2022-08-25T21:07:43.623Z,96162.66
2022-08-25T21:10:14.515Z,96147.50
2022-08-25T21:12:44.979Z,96146.94
2022-08-25T21:15:13.639Z,96127.97
2022-08-25T21:17:49.328Z,96147.66
2022-08-25T21:20:16.408Z,96118.78
2022-08-25T21:22:44.764Z,96156.28
2022-08-25T21:25:12.771Z,96137.50
2022-08-25T21:27:39.698Z,96142.00
2022-08-25T21:30:13.012Z,96156.25
2022-08-25T21:32:39.732Z,96160.44
2022-08-25T21:35:20.242Z,96149.78
2022-08-25T21:37:46.903Z,96128.88
2022-08-25T21:40:20.488Z,96162.81
2022-08-25T21:42:47.725Z,96166.63
2022-08-25T21:45:14.515Z,96160.78
2022-08-25T21:47:42.467Z,96081.56
2022-08-25T21:50:11.384Z,96141.25
2022-08-25T21:52:39.306Z,96157.78
2022-08-25T21:55:09.271Z,96133.81
2022-08-25T21:57:46.922Z,96142.69
2022-08-25T22:00:15.279Z,96137.69
2022-08-25T22:02:46.666Z,96139.69
2022-08-25T22:05:15.433Z,96152.13
2022-08-25T22:07:44.768Z,96110.88
2022-08-25T22:10:17.788Z,96137.28
2022-08-25T22:12:47.478Z,96131.72
2022-08-25T22:15:16.891Z,96145.06
2022-08-25T22:17:47.916Z,96145.94
2022-08-25T22:20:16.955Z,96140.06
2022-08-25T22:22:49.598Z,96119.47
2022-08-25T22:25:18.736Z,96106.69
2022-08-25T22:27:46.512Z,96132.53
2022-08-25T22:30:15.299Z,96135.94
2022-08-25T22:32:45.556Z,96139.09
2022-08-25T22:35:13.235Z,96142.06
2022-08-25T22:37:42.163Z,96146.91
2022-08-25T22:40:09.942Z,96131.16
2022-08-25T22:42:38.387Z,96136.91
2022-08-25T22:45:10.318Z,96099.13
2022-08-25T22:47:39.663Z,96136.75
2022-08-25T22:50:09.826Z,96148.00
2022-08-25T22:52:39.234Z,96148.41
2022-08-25T22:55:11.263Z,96134.75
2022-08-25T22:57:38.998Z,96126.16
2022-08-25T23:00:09.129Z,96133.00
2022-08-25T23:02:37.814Z,96123.97
2022-08-25T23:05:07.747Z,96133.34
2022-08-25T23:07:36.888Z,96122.78
2022-08-25T23:10:10.263Z,96130.38
2022-08-25T23:12:39.182Z,96134.00
2022-08-25T23:15:13.015Z,96135.22
2022-08-25T23:17:41.269Z,96119.19
2022-08-25T23:20:27.046Z,96115.56
2022-08-25T23:22:56.045Z,96108.91
2022-08-25T23:25:24.406Z,96105.34
2022-08-25T23:27:52.598Z,96086.25
2022-08-25T23:30:22.002Z,96116.66
2022-08-25T23:32:48.685Z,96101.53
2022-08-25T23:35:16.972Z,96101.25
2022-08-25T23:37:46.999Z,96110.03
2022-08-25T23:40:19.351Z,96100.25
2022-08-25T23:42:46.252Z,96085.44
2022-08-25T23:45:15.716Z,96094.13
2022-08-25T23:47:42.345Z,96093.13
2022-08-25T23:50:09.893Z,96097.06
2022-08-25T23:52:37.838Z,96079.72
2022-08-25T23:55:06.290Z,96084.13
2022-08-25T23:57:35.061Z,96087.06
